Phelps, Texas
Current Conditions -  °F | °C
As of 2:53 AM on Monday 24 Nov 2014 (Local Time) from KUTS Reporting Station
Clear Clear  
Wind Chill: 51°   Ceiling: Unl
Heat Index: 51°   Visibility: 10mi
Dew Point: 41°   Wind: 8mph
Humidity: 68%   Direction: 320°NW
Pressure: 29.87"   Gusts: NA
Location:  30.7067°N, 95.5483°W
Report Text: KUTS 240853Z AUTO 32007KT 10SM CLR 11/05 A2987 RMK AO2 SLP112 T01060050 51029
Loading
Personal Weather Stations






























Interactive Weather Map New forecast layout! Learn more

10-Day Weather Forecast

Advertisements
Track Severe Weather on mobile